Time;durP1;ratioP1;P1;durP2;ratioP2;P2;SDS_P1;SDS_P2;PMS_P1;PMS_P2;Temp;Humidity;BMP_temperature;BMP_pressure;BME280_temperature;BME280_humidity;BME280_pressure;Samples;Min_cycle;Max_cycle;Signal;HPM_P1;HPM_P2
2022/09/30 00:00:36;;;;;;;8.65;3.17;;;;;;;;;;4926994;29;20475;-73
2022/09/30 00:03:02;;;;;;;5.70;3.05;;;;;;;;;;4925694;29;20035;-73
2022/09/30 00:05:28;;;;;;;6.95;3.08;;;;;;;;;;4907644;29;20091;-73
2022/09/30 00:07:54;;;;;;;6.65;3.38;;;;;;;;;;4921051;29;20060;-73
2022/09/30 00:10:20;;;;;;;10.90;4.30;;;;;;;;;;4920451;29;20036;-73
2022/09/30 00:12:47;;;;;;;7.05;3.40;;;;;;;;;;4921860;29;20028;-73
2022/09/30 00:15:13;;;;;;;6.28;3.15;;;;;;;;;;4921893;29;20090;-73
2022/09/30 00:17:39;;;;;;;6.43;2.97;;;;;;;;;;4917649;29;20056;-73
2022/09/30 00:20:07;;;;;;;6.88;2.90;;;;;;;;;;4918369;29;20054;-73
2022/09/30 00:22:33;;;;;;;4.63;3.30;;;;;;;;;;4917254;29;20027;-73
2022/09/30 00:24:59;;;;;;;5.05;3.10;;;;;;;;;;4922312;29;20036;-73
2022/09/30 00:27:25;;;;;;;7.22;2.67;;;;;;;;;;4901145;29;20127;-73
2022/09/30 00:29:51;;;;;;;7.10;3.20;;;;;;;;;;4918847;29;20047;-73
2022/09/30 00:32:17;;;;;;;3.97;2.60;;;;;;;;;;4916343;29;20394;-72
2022/09/30 00:34:45;;;;;;;7.70;2.83;;;;;;;;;;4920911;29;20112;-74
2022/09/30 00:37:14;;;;;;;9.93;2.78;;;;;;;;;;4908625;29;20493;-72
2022/09/30 00:39:40;;;;;;;4.93;2.40;;;;;;;;;;4902039;29;20482;-73
2022/09/30 00:42:07;;;;;;;3.08;2.00;;;;;;;;;;4920481;29;20084;-72
2022/09/30 00:44:45;;;;;;;4.18;2.22;;;;;;;;;;4914432;29;20059;-73
2022/09/30 00:47:30;;;;;;;3.08;2.00;;;;;;;;;;4919623;29;20040;-73
2022/09/30 00:49:59;;;;;;;2.95;1.98;;;;;;;;;;4916682;29;20024;-73
2022/09/30 00:52:26;;;;;;;4.35;2.00;;;;;;;;;;4915171;29;20024;-73
2022/09/30 00:54:53;;;;;;;4.22;2.30;;;;;;;;;;4923262;29;20021;-73
2022/09/30 00:57:19;;;;;;;4.72;1.98;;;;;;;;;;4923074;29;20034;-73
2022/09/30 00:59:47;;;;;;;4.00;2.25;;;;;;;;;;4912365;29;20020;-74
2022/09/30 01:02:14;;;;;;;5.68;1.90;;;;;;;;;;4919370;29;20028;-73
2022/09/30 01:04:42;;;;;;;2.85;1.88;;;;;;;;;;4916536;29;20101;-73
2022/09/30 01:07:14;;;;;;;3.10;1.95;;;;;;;;;;4925689;29;20032;-73
2022/09/30 01:09:44;;;;;;;6.90;2.20;;;;;;;;;;4905751;29;20036;-73
2022/09/30 01:12:16;;;;;;;6.22;1.90;;;;;;;;;;4918794;29;20044;-73
2022/09/30 01:14:42;;;;;;;1.60;1.50;;;;;;;;;;4919808;29;20036;-73
2022/09/30 01:17:11;;;;;;;2.90;1.65;;;;;;;;;;4919178;29;20032;-73
2022/09/30 01:19:57;;;;;;;2.95;1.60;;;;;;;;;;4906091;29;20509;-73
2022/09/30 01:22:49;;;;;;;4.03;1.55;;;;;;;;;;4922881;29;20125;-74
2022/09/30 01:25:19;;;;;;;4.65;2.40;;;;;;;;;;4915386;29;20062;-74
2022/09/30 01:27:45;;;;;;;1.65;1.35;;;;;;;;;;4915844;29;20376;-74
2022/09/30 01:30:30;;;;;;;2.20;1.50;;;;;;;;;;4926186;29;20545;-73
2022/09/30 01:33:03;;;;;;;2.15;1.40;;;;;;;;;;4913953;29;20035;-74
2022/09/30 01:35:53;;;;;;;2.72;1.20;;;;;;;;;;4912261;29;20035;-73
2022/09/30 01:38:27;;;;;;;1.80;1.45;;;;;;;;;;4916247;29;20043;-73
2022/09/30 01:41:17;;;;;;;1.38;1.20;;;;;;;;;;4927450;29;20506;-73
2022/09/30 01:43:43;;;;;;;1.30;1.20;;;;;;;;;;4918145;29;20036;-73
2022/09/30 01:46:42;;;;;;;0.93;0.93;;;;;;;;;;4923220;29;20087;-74
2022/09/30 01:49:14;;;;;;;1.65;1.27;;;;;;;;;;4845018;29;20042;-75
2022/09/30 01:51:43;;;;;;;3.13;0.98;;;;;;;;;;4845389;29;20038;-73
2022/09/30 01:54:16;;;;;;;1.15;1.05;;;;;;;;;;4841967;29;20073;-73
2022/09/30 01:56:43;;;;;;;1.27;1.17;;;;;;;;;;4846923;29;20018;-72
2022/09/30 01:59:35;;;;;;;0.88;0.88;;;;;;;;;;4842121;29;20133;-74
2022/09/30 02:02:05;;;;;;;1.67;1.20;;;;;;;;;;4838702;29;20186;-73
2022/09/30 02:04:34;;;;;;;2.30;0.98;;;;;;;;;;4844155;29;20038;-73
2022/09/30 02:07:01;;;;;;;1.10;0.85;;;;;;;;;;4840069;29;20031;-74
2022/09/30 02:09:50;;;;;;;1.40;0.90;;;;;;;;;;4838383;29;20042;-73
2022/09/30 02:12:19;;;;;;;1.50;1.40;;;;;;;;;;4829342;29;20042;-73
2022/09/30 02:14:57;;;;;;;0.93;0.93;;;;;;;;;;4843232;29;20049;-72
2022/09/30 02:17:26;;;;;;;1.70;1.30;;;;;;;;;;4841666;29;20066;-73
2022/09/30 02:19:57;;;;;;;1.85;1.30;;;;;;;;;;4845134;29;20083;-73
2022/09/30 02:22:31;;;;;;;1.67;1.20;;;;;;;;;;4827093;29;20034;-73
2022/09/30 02:25:00;;;;;;;2.13;1.25;;;;;;;;;;4873712;29;20118;-72
2022/09/30 02:27:30;;;;;;;1.15;1.05;;;;;;;;;;4931252;29;20035;-73
2022/09/30 02:29:57;;;;;;;1.02;1.02;;;;;;;;;;4925003;29;20111;-73
2022/09/30 02:32:31;;;;;;;5.68;1.27;;;;;;;;;;4922320;29;20391;-74
2022/09/30 02:35:00;;;;;;;1.23;1.10;;;;;;;;;;4935313;29;20091;-73
2022/09/30 02:37:28;;;;;;;3.05;1.10;;;;;;;;;;4929072;29;20115;-73
2022/09/30 02:40:01;;;;;;;1.23;1.10;;;;;;;;;;4928431;29;20027;-72
2022/09/30 02:42:29;;;;;;;1.10;1.00;;;;;;;;;;4922114;29;20027;-73
2022/09/30 02:45:02;;;;;;;3.53;1.42;;;;;;;;;;4927133;29;20039;-73
2022/09/30 02:47:38;;;;;;;3.67;1.65;;;;;;;;;;4925995;29;20112;-74
2022/09/30 02:50:08;;;;;;;2.20;1.90;;;;;;;;;;4938687;29;20429;-74
2022/09/30 02:52:35;;;;;;;2.38;1.90;;;;;;;;;;4924868;29;20032;-73
2022/09/30 02:55:20;;;;;;;2.50;1.90;;;;;;;;;;4925131;29;20032;-73
2022/09/30 02:57:55;;;;;;;2.53;1.77;;;;;;;;;;4925726;29;20088;-74
2022/09/30 03:00:22;;;;;;;2.83;1.90;;;;;;;;;;4923248;29;20398;-74
2022/09/30 03:02:49;;;;;;;4.28;2.10;;;;;;;;;;4925238;29;20031;-73
2022/09/30 03:05:16;;;;;;;2.38;1.90;;;;;;;;;;4921631;29;20087;-72
2022/09/30 03:07:42;;;;;;;4.28;2.00;;;;;;;;;;4918914;29;20382;-74
2022/09/30 03:10:12;;;;;;;2.55;1.73;;;;;;;;;;4924566;29;20062;-73
2022/09/30 03:12:41;;;;;;;3.53;2.10;;;;;;;;;;4924171;29;20020;-74
2022/09/30 03:15:07;;;;;;;2.65;2.08;;;;;;;;;;4922925;28;21863;-73
2022/09/30 03:17:54;;;;;;;1.80;1.70;;;;;;;;;;4924109;29;20027;-74
2022/09/30 03:20:27;;;;;;;4.07;2.30;;;;;;;;;;4918450;29;20016;-73
2022/09/30 03:22:59;;;;;;;5.18;2.47;;;;;;;;;;4932131;28;20052;-73
2022/09/30 03:25:44;;;;;;;5.90;2.20;;;;;;;;;;4918863;29;20024;-73
2022/09/30 03:28:32;;;;;;;4.43;2.42;;;;;;;;;;4922159;29;20105;-73
2022/09/30 03:31:16;;;;;;;3.78;2.30;;;;;;;;;;4919967;29;20091;-73
2022/09/30 03:33:42;;;;;;;2.60;2.20;;;;;;;;;;4924937;29;20028;-73
2022/09/30 03:36:13;;;;;;;4.95;2.40;;;;;;;;;;4906572;29;20043;-79
2022/09/30 03:38:52;;;;;;;4.78;2.80;;;;;;;;;;4922335;29;20036;-74
2022/09/30 03:41:21;;;;;;;5.90;2.50;;;;;;;;;;4919673;29;20099;-73
2022/09/30 03:43:48;;;;;;;4.65;2.50;;;;;;;;;;4905795;29;20031;-74
2022/09/30 03:46:17;;;;;;;4.65;2.80;;;;;;;;;;4923218;29;20058;-73
2022/09/30 03:48:45;;;;;;;4.35;3.08;;;;;;;;;;4930211;29;20092;-73
2022/09/30 03:51:12;;;;;;;4.40;2.70;;;;;;;;;;4922789;29;20498;-72
2022/09/30 03:53:41;;;;;;;6.07;2.80;;;;;;;;;;4922744;29;20424;-73
2022/09/30 03:56:07;;;;;;;3.72;2.50;;;;;;;;;;4920827;29;20024;-72
2022/09/30 03:58:35;;;;;;;5.47;2.40;;;;;;;;;;4928796;29;20427;-73
2022/09/30 04:01:01;;;;;;;3.65;2.42;;;;;;;;;;4925328;29;20062;-74
2022/09/30 04:03:27;;;;;;;7.10;2.60;;;;;;;;;;4919682;29;20091;-73
2022/09/30 04:05:53;;;;;;;4.40;2.17;;;;;;;;;;4928643;29;20490;-73
2022/09/30 04:08:21;;;;;;;5.47;2.40;;;;;;;;;;4925871;29;20060;-73
2022/09/30 04:10:47;;;;;;;3.78;2.10;;;;;;;;;;4921688;29;20070;-74
2022/09/30 04:13:13;;;;;;;3.60;2.20;;;;;;;;;;4929883;29;20027;-74
2022/09/30 04:15:39;;;;;;;2.75;2.22;;;;;;;;;;4935626;29;20499;-73
2022/09/30 04:18:05;;;;;;;4.82;2.38;;;;;;;;;;4928089;29;20028;-74
2022/09/30 04:20:32;;;;;;;3.00;2.03;;;;;;;;;;4925215;29;20036;-73
2022/09/30 04:22:58;;;;;;;6.03;2.25;;;;;;;;;;4922656;29;20481;-73
2022/09/30 04:25:25;;;;;;;9.05;2.60;;;;;;;;;;4933439;29;20028;-73
2022/09/30 04:27:53;;;;;;;6.20;2.80;;;;;;;;;;4927883;29;20040;-74
2022/09/30 04:30:20;;;;;;;9.85;5.47;;;;;;;;;;4928926;29;20055;-75
2022/09/30 04:32:46;;;;;;;6.10;3.60;;;;;;;;;;4922972;29;20039;-74
2022/09/30 04:35:13;;;;;;;6.88;3.17;;;;;;;;;;4932193;29;20111;-73
2022/09/30 04:37:45;;;;;;;4.25;2.90;;;;;;;;;;4928590;29;20031;-73
2022/09/30 04:40:12;;;;;;;7.10;3.30;;;;;;;;;;4929837;29;20123;-73
2022/09/30 04:42:39;;;;;;;5.15;3.60;;;;;;;;;;4924122;29;20034;-73
2022/09/30 04:45:06;;;;;;;8.88;3.38;;;;;;;;;;4923728;29;20028;-73
2022/09/30 04:47:32;;;;;;;7.97;3.80;;;;;;;;;;4907193;29;20028;-73
2022/09/30 04:49:58;;;;;;;7.10;3.40;;;;;;;;;;4911192;29;20056;-72
2022/09/30 04:52:24;;;;;;;5.10;3.13;;;;;;;;;;4914468;29;20025;-73
2022/09/30 04:54:50;;;;;;;4.85;3.15;;;;;;;;;;4900905;29;20035;-73
2022/09/30 04:57:16;;;;;;;5.88;2.80;;;;;;;;;;4926608;29;20024;-72
2022/09/30 04:59:43;;;;;;;6.00;3.58;;;;;;;;;;4909680;29;20032;-73
2022/09/30 05:02:11;;;;;;;8.63;3.20;;;;;;;;;;4926993;29;20137;-74
2022/09/30 05:04:37;;;;;;;5.53;3.30;;;;;;;;;;4929201;29;20028;-72
2022/09/30 05:07:07;;;;;;;7.30;3.97;;;;;;;;;;4927447;29;20032;-73
2022/09/30 05:09:34;;;;;;;6.93;3.83;;;;;;;;;;4928335;29;20056;-73
2022/09/30 05:12:01;;;;;;;6.20;2.97;;;;;;;;;;4918576;29;20032;-73
2022/09/30 05:14:28;;;;;;;5.63;3.63;;;;;;;;;;4918124;29;20149;-72
2022/09/30 05:16:54;;;;;;;10.15;3.72;;;;;;;;;;4917871;29;20033;-73
2022/09/30 05:19:20;;;;;;;7.05;3.97;;;;;;;;;;4924389;29;20032;-72
2022/09/30 05:21:46;;;;;;;9.40;3.88;;;;;;;;;;4916779;29;20028;-73
2022/09/30 05:24:12;;;;;;;6.57;4.00;;;;;;;;;;4920207;29;20040;-73
2022/09/30 05:26:39;;;;;;;7.00;3.60;;;;;;;;;;4908581;29;20127;-73
2022/09/30 05:29:05;;;;;;;9.23;3.67;;;;;;;;;;4934745;29;20037;-73
2022/09/30 05:31:31;;;;;;;7.22;3.03;;;;;;;;;;4919704;29;20039;-74
2022/09/30 05:34:00;;;;;;;5.32;3.10;;;;;;;;;;4927315;29;20008;-72
2022/09/30 05:36:29;;;;;;;5.22;3.33;;;;;;;;;;4929296;29;20035;-72
2022/09/30 05:38:55;;;;;;;3.53;2.50;;;;;;;;;;4919650;29;20032;-73
2022/09/30 05:41:21;;;;;;;6.57;2.85;;;;;;;;;;4922990;29;20044;-75
2022/09/30 05:43:48;;;;;;;3.30;2.47;;;;;;;;;;4903322;29;20490;-73
2022/09/30 05:46:15;;;;;;;5.88;2.70;;;;;;;;;;4917462;29;20434;-73
2022/09/30 05:48:41;;;;;;;8.00;3.03;;;;;;;;;;4914802;29;20051;-73
2022/09/30 05:51:08;;;;;;;5.32;3.10;;;;;;;;;;4915432;29;20061;-72
2022/09/30 05:53:37;;;;;;;10.40;4.78;;;;;;;;;;4903114;29;20029;-73
2022/09/30 05:56:03;;;;;;;8.45;3.53;;;;;;;;;;4918857;29;20004;-73
2022/09/30 05:58:30;;;;;;;5.25;2.90;;;;;;;;;;4932763;29;20028;-72
2022/09/30 06:00:56;;;;;;;5.85;3.22;;;;;;;;;;4922978;29;20036;-72
2022/09/30 06:03:22;;;;;;;4.10;2.53;;;;;;;;;;4933420;29;20036;-74
2022/09/30 06:05:55;;;;;;;4.53;2.90;;;;;;;;;;4916977;29;20053;-72
2022/09/30 06:08:24;;;;;;;5.50;2.40;;;;;;;;;;4921768;29;20020;-74
2022/09/30 06:10:50;;;;;;;7.60;3.47;;;;;;;;;;4932502;29;20020;-72
2022/09/30 06:13:16;;;;;;;7.63;3.42;;;;;;;;;;4926872;29;20029;-72
2022/09/30 06:15:42;;;;;;;6.45;3.90;;;;;;;;;;4926043;29;20502;-72
2022/09/30 06:18:09;;;;;;;7.40;3.85;;;;;;;;;;4921722;29;20084;-73
2022/09/30 06:20:38;;;;;;;10.52;4.50;;;;;;;;;;4907801;29;20080;-71
2022/09/30 06:23:04;;;;;;;10.52;4.45;;;;;;;;;;4920341;29;20055;-72
2022/09/30 06:25:30;;;;;;;6.95;4.07;;;;;;;;;;4919665;29;20032;-72
2022/09/30 06:28:00;;;;;;;6.78;3.60;;;;;;;;;;4917370;29;20072;-72
2022/09/30 06:30:26;;;;;;;6.45;3.42;;;;;;;;;;4926243;29;20016;-73
2022/09/30 06:32:56;;;;;;;6.30;4.60;;;;;;;;;;4936821;29;20043;-72
2022/09/30 06:35:26;;;;;;;4.65;3.80;;;;;;;;;;4927152;29;20100;-77
2022/09/30 06:37:52;;;;;;;5.07;3.53;;;;;;;;;;4912146;29;20052;-72
2022/09/30 06:40:20;;;;;;;4.15;3.35;;;;;;;;;;4913231;29;20104;-72
2022/09/30 06:42:47;;;;;;;4.80;3.45;;;;;;;;;;4936774;29;20020;-72
2022/09/30 06:45:13;;;;;;;4.97;3.20;;;;;;;;;;4939130;29;20036;-72
2022/09/30 06:47:39;;;;;;;4.70;3.20;;;;;;;;;;4932096;29;20035;-76
2022/09/30 06:50:05;;;;;;;3.30;2.80;;;;;;;;;;4927553;29;20076;-72
2022/09/30 06:52:31;;;;;;;6.32;2.50;;;;;;;;;;4904539;29;20397;-79
2022/09/30 06:54:57;;;;;;;3.83;2.13;;;;;;;;;;4925757;29;20030;-77
2022/09/30 06:57:26;;;;;;;3.17;1.90;;;;;;;;;;4934928;29;20564;-75
2022/09/30 06:59:53;;;;;;;3.65;2.50;;;;;;;;;;4927105;29;20036;-76
2022/09/30 07:02:19;;;;;;;3.75;1.83;;;;;;;;;;4910385;29;20765;-76
2022/09/30 07:04:46;;;;;;;3.03;1.95;;;;;;;;;;4925407;29;20059;-77
2022/09/30 07:07:13;;;;;;;2.33;2.00;;;;;;;;;;4924335;29;20034;-75
2022/09/30 07:09:39;;;;;;;3.17;2.20;;;;;;;;;;4919570;29;20039;-73
2022/09/30 07:12:06;;;;;;;3.38;2.63;;;;;;;;;;4919711;29;20032;-74
2022/09/30 07:14:32;;;;;;;4.65;3.45;;;;;;;;;;4924158;29;20055;-74
2022/09/30 07:16:58;;;;;;;3.17;2.58;;;;;;;;;;4921477;29;20036;-75
2022/09/30 07:19:24;;;;;;;4.43;2.60;;;;;;;;;;4920193;29;20541;-77
2022/09/30 07:21:51;;;;;;;3.17;2.80;;;;;;;;;;4900969;29;20037;-79
2022/09/30 07:24:18;;;;;;;2.97;2.50;;;;;;;;;;4923816;29;20023;-78
2022/09/30 07:26:44;;;;;;;4.10;2.70;;;;;;;;;;4932377;29;20130;-78
2022/09/30 07:29:33;;;;;;;6.45;3.97;;;;;;;;;;4940098;29;20039;-78
2022/09/30 07:32:03;;;;;;;4.90;3.63;;;;;;;;;;4934714;29;20028;-78
2022/09/30 07:34:29;;;;;;;3.80;3.40;;;;;;;;;;4934031;29;20028;-76
2022/09/30 07:36:55;;;;;;;4.60;3.30;;;;;;;;;;4938146;29;20115;-77
2022/09/30 07:39:21;;;;;;;4.90;3.28;;;;;;;;;;4931520;29;20040;-78
2022/09/30 07:41:48;;;;;;;4.43;3.30;;;;;;;;;;4933147;29;20065;-78
2022/09/30 07:44:14;;;;;;;6.20;3.17;;;;;;;;;;4927493;29;20033;-76
2022/09/30 07:46:41;;;;;;;4.32;3.00;;;;;;;;;;4924156;29;20056;-75
2022/09/30 07:49:13;;;;;;;3.33;2.40;;;;;;;;;;4925953;29;20036;-75
2022/09/30 07:51:40;;;;;;;5.18;3.00;;;;;;;;;;4931200;29;20027;-77
2022/09/30 07:54:08;;;;;;;3.47;3.00;;;;;;;;;;4913549;29;20016;-80
2022/09/30 07:56:38;;;;;;;3.97;2.67;;;;;;;;;;4922874;29;20063;-82
2022/09/30 07:59:05;;;;;;;2.92;2.38;;;;;;;;;;4926652;29;20028;-78
2022/09/30 08:01:32;;;;;;;3.17;2.42;;;;;;;;;;4925498;29;20036;-76
2022/09/30 08:04:00;;;;;;;4.63;2.25;;;;;;;;;;4924527;29;20028;-75
2022/09/30 08:06:28;;;;;;;3.60;2.38;;;;;;;;;;4930300;29;20060;-81
2022/09/30 08:08:54;;;;;;;3.33;2.20;;;;;;;;;;4930168;29;20025;-81
2022/09/30 08:11:21;;;;;;;2.40;1.80;;;;;;;;;;4929601;29;20033;-78
2022/09/30 08:13:54;;;;;;;3.03;2.22;;;;;;;;;;4923599;29;20032;-76
2022/09/30 08:16:24;;;;;;;3.95;2.17;;;;;;;;;;4919477;29;20049;-75
2022/09/30 08:18:56;;;;;;;2.70;2.08;;;;;;;;;;4928050;29;20123;-75
2022/09/30 08:21:22;;;;;;;3.05;2.60;;;;;;;;;;4935468;29;20040;-75
2022/09/30 08:23:49;;;;;;;2.70;2.17;;;;;;;;;;4926944;29;20015;-76
2022/09/30 08:26:36;;;;;;;2.92;2.40;;;;;;;;;;4933808;29;20039;-77
2022/09/30 08:29:05;;;;;;;3.35;2.20;;;;;;;;;;4914586;29;20041;-83
2022/09/30 08:31:35;;;;;;;3.80;2.30;;;;;;;;;;4918346;29;20032;-80
2022/09/30 08:34:02;;;;;;;2.65;2.35;;;;;;;;;;4910575;29;20084;-76
2022/09/30 08:36:30;;;;;;;3.53;2.63;;;;;;;;;;4911892;29;20032;-78
2022/09/30 08:38:57;;;;;;;4.53;2.38;;;;;;;;;;4918159;29;20031;-80
2022/09/30 08:41:45;;;;;;;3.83;2.60;;;;;;;;;;4918173;29;20056;-75
2022/09/30 08:44:26;;;;;;;3.63;2.10;;;;;;;;;;4915118;29;20120;-79
2022/09/30 08:47:02;;;;;;;5.22;2.88;;;;;;;;;;4916157;29;20012;-77
2022/09/30 08:49:43;;;;;;;4.68;2.20;;;;;;;;;;4908211;29;20032;-77
2022/09/30 08:52:49;;;;;;;8.02;2.90;;;;;;;;;;4912285;29;20088;-76
2022/09/30 08:55:20;;;;;;;3.13;2.50;;;;;;;;;;4917607;29;20056;-77
2022/09/30 08:57:46;;;;;;;4.05;2.50;;;;;;;;;;4915301;29;20028;-75
2022/09/30 09:00:17;;;;;;;2.88;2.10;;;;;;;;;;4909554;29;20045;-77
2022/09/30 09:02:50;;;;;;;6.82;2.80;;;;;;;;;;4918797;29;20028;-77
2022/09/30 09:05:39;;;;;;;3.40;2.22;;;;;;;;;;4907704;29;20048;-75
2022/09/30 09:08:24;;;;;;;6.28;2.70;;;;;;;;;;4853628;29;20048;-76
2022/09/30 09:10:58;;;;;;;5.85;2.85;;;;;;;;;;4851163;29;20038;-76
2022/09/30 09:13:30;;;;;;;4.15;2.70;;;;;;;;;;4858760;29;20038;-75
2022/09/30 09:16:12;;;;;;;3.33;2.13;;;;;;;;;;4848672;29;20034;-76
2022/09/30 09:19:04;;;;;;;5.63;2.30;;;;;;;;;;4852448;29;21286;-76
2022/09/30 09:21:39;;;;;;;5.65;2.60;;;;;;;;;;4853277;29;20042;-76
2022/09/30 09:24:10;;;;;;;2.40;1.92;;;;;;;;;;4855516;29;20592;-76
2022/09/30 09:26:36;;;;;;;6.20;2.60;;;;;;;;;;4850004;29;20050;-76
2022/09/30 09:29:11;;;;;;;3.25;1.75;;;;;;;;;;4852252;29;20055;-75
2022/09/30 09:31:37;;;;;;;2.10;1.90;;;;;;;;;;4841799;29;20513;-75
2022/09/30 09:34:10;;;;;;;3.80;1.80;;;;;;;;;;4849055;29;20036;-75
2022/09/30 09:36:58;;;;;;;2.97;2.00;;;;;;;;;;4851029;29;20042;-75
2022/09/30 09:39:30;;;;;;;4.10;1.90;;;;;;;;;;4855615;29;20045;-75
2022/09/30 09:42:09;;;;;;;3.60;1.95;;;;;;;;;;4841747;29;20577;-75
2022/09/30 09:44:35;;;;;;;4.03;1.92;;;;;;;;;;4864157;29;20067;-76
2022/09/30 09:47:04;;;;;;;4.30;2.20;;;;;;;;;;4910210;29;20044;-76
2022/09/30 09:49:31;;;;;;;4.00;2.03;;;;;;;;;;4909603;29;20219;-75
2022/09/30 09:52:29;;;;;;;5.20;2.30;;;;;;;;;;4896263;29;20032;-75
2022/09/30 09:54:55;;;;;;;2.80;1.90;;;;;;;;;;4825754;29;20046;-74
2022/09/30 09:57:30;;;;;;;3.45;2.10;;;;;;;;;;4823653;29;20061;-75
2022/09/30 09:59:57;;;;;;;3.53;2.25;;;;;;;;;;4817931;29;20110;-75
2022/09/30 10:02:25;;;;;;;7.40;1.85;;;;;;;;;;4813125;29;20031;-78
2022/09/30 10:05:00;;;;;;;3.58;1.90;;;;;;;;;;4832812;29;20067;-75
2022/09/30 10:07:32;;;;;;;6.00;2.63;;;;;;;;;;4831133;29;20027;-75
2022/09/30 10:10:16;;;;;;;3.97;2.03;;;;;;;;;;4791047;29;20046;-75
2022/09/30 10:12:42;;;;;;;3.42;2.40;;;;;;;;;;4830759;29;20038;-75
2022/09/30 10:15:20;;;;;;;3.33;2.08;;;;;;;;;;4831840;29;20070;-76
2022/09/30 10:18:09;;;;;;;10.60;2.92;;;;;;;;;;4842407;29;20047;-76
2022/09/30 10:21:05;;;;;;;14.75;3.47;;;;;;;;;;4839382;29;20042;-76
2022/09/30 10:23:33;;;;;;;5.45;2.10;;;;;;;;;;4797079;29;20521;-74
2022/09/30 10:25:59;;;;;;;16.40;7.45;;;;;;;;;;4794666;29;20032;-76
2022/09/30 10:28:30;;;;;;;5.28;2.40;;;;;;;;;;4820832;29;20101;-76
2022/09/30 10:31:01;;;;;;;2.53;1.90;;;;;;;;;;4866098;29;20040;-79
2022/09/30 10:33:30;;;;;;;3.53;2.20;;;;;;;;;;4884571;29;20088;-76
2022/09/30 10:36:04;;;;;;;11.65;2.78;;;;;;;;;;4881191;29;20065;-76
2022/09/30 10:38:33;;;;;;;6.72;3.28;;;;;;;;;;4910796;29;20048;-76
2022/09/30 10:41:02;;;;;;;11.40;2.47;;;;;;;;;;4899719;29;20067;-77
2022/09/30 10:43:32;;;;;;;8.23;2.28;;;;;;;;;;4899780;29;20056;-80
2022/09/30 10:46:02;;;;;;;11.15;3.00;;;;;;;;;;4886341;29;20020;-77
2022/09/30 10:48:34;;;;;;;3.17;2.00;;;;;;;;;;4872381;29;20107;-74
2022/09/30 10:51:00;;;;;;;12.38;2.97;;;;;;;;;;4893220;29;20033;-74
2022/09/30 10:53:28;;;;;;;6.10;2.30;;;;;;;;;;4881750;29;20037;-75
2022/09/30 10:55:55;;;;;;;7.65;2.45;;;;;;;;;;4898850;29;20028;-81
2022/09/30 10:58:27;;;;;;;4.95;2.25;;;;;;;;;;4898592;29;20115;-73
2022/09/30 11:00:58;;;;;;;5.78;2.47;;;;;;;;;;4929736;29;20095;-82
2022/09/30 11:03:27;;;;;;;11.30;5.45;;;;;;;;;;4937176;29;20015;-79
2022/09/30 11:05:53;;;;;;;2.92;2.10;;;;;;;;;;4938114;29;20084;-81
2022/09/30 11:08:28;;;;;;;4.22;2.38;;;;;;;;;;4936384;29;20028;-79
2022/09/30 11:11:01;;;;;;;4.60;2.10;;;;;;;;;;4943972;29;20027;-78
2022/09/30 11:13:36;;;;;;;7.77;2.80;;;;;;;;;;4943958;29;20008;-77
2022/09/30 11:16:08;;;;;;;6.65;2.40;;;;;;;;;;4940954;29;20024;-75
2022/09/30 11:18:37;;;;;;;4.70;2.17;;;;;;;;;;4937007;29;20111;-78
2022/09/30 11:21:12;;;;;;;5.32;2.25;;;;;;;;;;4929004;29;20098;-75
2022/09/30 11:23:43;;;;;;;4.95;2.00;;;;;;;;;;4921088;29;20605;-80
2022/09/30 11:26:35;;;;;;;8.63;2.72;;;;;;;;;;4906988;29;20043;-77
2022/09/30 11:29:31;;;;;;;6.40;2.80;;;;;;;;;;4939798;29;20028;-77
2022/09/30 11:32:29;;;;;;;6.00;2.60;;;;;;;;;;4936242;29;20020;-79
2022/09/30 11:34:58;;;;;;;7.35;2.80;;;;;;;;;;4884046;29;20074;-80
2022/09/30 11:37:42;;;;;;;6.88;4.18;;;;;;;;;;4862147;29;20026;-78
2022/09/30 11:40:20;;;;;;;7.55;2.30;;;;;;;;;;4884619;29;20038;-78
2022/09/30 11:42:51;;;;;;;5.00;2.38;;;;;;;;;;4878027;29;20100;-79
2022/09/30 11:45:34;;;;;;;5.43;2.15;;;;;;;;;;4871639;29;20056;-84
2022/09/30 11:48:18;;;;;;;9.90;2.22;;;;;;;;;;4869251;29;20025;-77
2022/09/30 11:50:57;;;;;;;4.85;2.28;;;;;;;;;;4853835;29;20064;-76
2022/09/30 11:53:35;;;;;;;2.58;1.98;;;;;;;;;;4859820;29;20038;-73
2022/09/30 11:56:11;;;;;;;5.22;2.03;;;;;;;;;;4857750;29;20053;-77
2022/09/30 11:58:41;;;;;;;3.38;1.90;;;;;;;;;;4861515;29;20038;-78
2022/09/30 12:01:21;;;;;;;5.35;2.03;;;;;;;;;;4867825;29;20555;-81
2022/09/30 12:03:54;;;;;;;5.38;2.10;;;;;;;;;;4865390;29;20037;-76
2022/09/30 12:06:20;;;;;;;;;;;;;;;;;;4864757;29;20041;-79
2022/09/30 12:08:49;;;;;;;5.00;1.98;;;;;;;;;;4856866;29;19913;-77
2022/09/30 12:11:42;;;;;;;6.55;2.20;;;;;;;;;;4880050;29;20048;-80
2022/09/30 12:14:15;;;;;;;3.15;1.85;;;;;;;;;;4927311;29;20071;-78
2022/09/30 12:16:41;;;;;;;;;;;;;;;;;;4907821;29;20390;-77
2022/09/30 12:19:34;;;;;;;8.18;1.90;;;;;;;;;;4924674;29;19907;-80
2022/09/30 12:22:19;;;;;;;7.18;2.20;;;;;;;;;;4920504;29;20651;-77
2022/09/30 12:24:45;;;;;;;5.60;2.13;;;;;;;;;;4935088;29;20032;-79
2022/09/30 12:27:18;;;;;;;6.90;2.47;;;;;;;;;;4915789;29;20470;-81
2022/09/30 12:30:16;;;;;;;7.15;2.65;;;;;;;;;;4938133;29;20075;-76
2022/09/30 12:32:58;;;;;;;6.50;2.00;;;;;;;;;;4925391;29;20092;-80
2022/09/30 12:35:42;;;;;;;3.17;1.95;;;;;;;;;;4934932;29;20036;-78
2022/09/30 12:38:18;;;;;;;3.90;2.17;;;;;;;;;;4925859;29;20114;-79
2022/09/30 12:40:55;;;;;;;3.25;2.15;;;;;;;;;;4919051;29;20605;-77
2022/09/30 12:43:22;;;;;;;5.53;2.10;;;;;;;;;;4913211;29;20072;-77
2022/09/30 12:45:48;;;;;;;5.93;2.20;;;;;;;;;;4915880;29;20024;-77
2022/09/30 12:48:17;;;;;;;4.10;2.10;;;;;;;;;;4920156;29;20038;-77
2022/09/30 12:50:51;;;;;;;5.22;2.30;;;;;;;;;;4923035;29;20064;-75
2022/09/30 12:53:25;;;;;;;5.13;2.13;;;;;;;;;;4916454;29;20043;-75
2022/09/30 12:55:51;;;;;;;12.02;7.00;;;;;;;;;;4918529;29;20446;-76
2022/09/30 12:58:30;;;;;;;6.35;3.92;;;;;;;;;;4921631;29;20083;-80
2022/09/30 13:01:05;;;;;;;6.90;2.80;;;;;;;;;;4920356;29;20545;-75
2022/09/30 13:03:43;;;;;;;6.82;2.28;;;;;;;;;;4920636;29;20055;-75
2022/09/30 13:06:09;;;;;;;7.22;2.72;;;;;;;;;;4920727;29;20033;-75
2022/09/30 13:09:02;;;;;;;4.78;2.60;;;;;;;;;;4920662;29;20035;-75
2022/09/30 13:11:38;;;;;;;6.72;2.25;;;;;;;;;;4841826;29;20038;-76
2022/09/30 13:14:11;;;;;;;9.45;2.38;;;;;;;;;;4844643;29;20049;-76
2022/09/30 13:16:55;;;;;;;5.53;2.50;;;;;;;;;;4842272;29;20281;-75
2022/09/30 13:19:30;;;;;;;7.57;2.35;;;;;;;;;;4840223;29;20103;-75
2022/09/30 13:22:14;;;;;;;3.53;2.03;;;;;;;;;;4842661;29;20044;-80
2022/09/30 13:24:59;;;;;;;5.38;2.30;;;;;;;;;;4848446;29;20045;-76
2022/09/30 13:27:34;;;;;;;4.65;2.10;;;;;;;;;;4850367;29;20070;-75
2022/09/30 13:30:01;;;;;;;3.50;2.05;;;;;;;;;;4853888;29;20049;-77
2022/09/30 13:32:51;;;;;;;5.65;2.35;;;;;;;;;;4841848;29;20037;-76
2022/09/30 13:35:33;;;;;;;3.85;2.13;;;;;;;;;;4842571;29;20042;-75
2022/09/30 13:38:12;;;;;;;4.17;2.70;;;;;;;;;;4844392;29;20041;-78
2022/09/30 13:40:41;;;;;;;7.63;2.90;;;;;;;;;;4851248;29;20129;-74
2022/09/30 13:43:09;;;;;;;13.32;4.78;;;;;;;;;;4843373;29;20054;-75
2022/09/30 13:45:38;;;;;;;14.30;5.05;;;;;;;;;;4850080;29;20133;-76
2022/09/30 13:48:11;;;;;;;7.22;4.00;;;;;;;;;;4882700;29;20115;-79
2022/09/30 13:50:45;;;;;;;15.15;4.03;;;;;;;;;;4930167;29;20027;-77
2022/09/30 13:53:19;;;;;;;7.60;3.17;;;;;;;;;;4922844;29;20110;-75
2022/09/30 13:55:49;;;;;;;7.07;2.85;;;;;;;;;;4922571;29;20036;-75
2022/09/30 13:58:32;;;;;;;5.60;2.63;;;;;;;;;;4912187;29;20060;-76
2022/09/30 14:01:17;;;;;;;6.25;2.50;;;;;;;;;;4922073;29;20724;-75
2022/09/30 14:03:52;;;;;;;8.18;2.58;;;;;;;;;;4914563;29;20051;-76
2022/09/30 14:06:28;;;;;;;7.40;2.90;;;;;;;;;;4923068;29;20028;-78
2022/09/30 14:09:03;;;;;;;9.90;3.22;;;;;;;;;;4918384;29;20028;-77
2022/09/30 14:11:47;;;;;;;9.10;2.75;;;;;;;;;;4923158;29;20051;-75
2022/09/30 14:14:37;;;;;;;4.85;2.88;;;;;;;;;;4901017;29;20069;-75
2022/09/30 14:17:16;;;;;;;8.40;3.08;;;;;;;;;;4912944;29;20028;-75
2022/09/30 14:19:56;;;;;;;10.27;3.10;;;;;;;;;;4920327;29;20433;-75
2022/09/30 14:22:25;;;;;;;8.60;3.10;;;;;;;;;;4914890;29;20095;-75
2022/09/30 14:24:51;;;;;;;7.70;2.80;;;;;;;;;;4917654;29;20273;-75
2022/09/30 14:27:18;;;;;;;6.93;2.80;;;;;;;;;;4918019;29;20052;-75
2022/09/30 14:29:47;;;;;;;7.18;2.63;;;;;;;;;;4919423;29;20050;-75
2022/09/30 14:32:19;;;;;;;7.80;2.38;;;;;;;;;;4912493;29;20099;-76
2022/09/30 14:34:47;;;;;;;9.35;2.92;;;;;;;;;;4920355;29;20470;-75
2022/09/30 14:37:26;;;;;;;7.88;3.15;;;;;;;;;;4916538;29;20124;-75
2022/09/30 14:39:52;;;;;;;10.35;3.38;;;;;;;;;;4918091;29;20029;-75
2022/09/30 14:42:23;;;;;;;7.95;3.20;;;;;;;;;;4921278;29;20466;-75
2022/09/30 14:45:03;;;;;;;8.07;3.35;;;;;;;;;;4907714;29;20084;-76
2022/09/30 14:47:33;;;;;;;8.57;3.10;;;;;;;;;;4923686;29;20516;-76
2022/09/30 14:50:01;;;;;;;8.48;3.47;;;;;;;;;;4921509;29;20084;-74
2022/09/30 14:52:41;;;;;;;7.50;2.97;;;;;;;;;;4930522;29;20055;-74
2022/09/30 14:55:24;;;;;;;7.50;2.90;;;;;;;;;;4914507;29;20158;-78
2022/09/30 14:57:55;;;;;;;8.25;3.17;;;;;;;;;;4896096;29;20063;-77
2022/09/30 15:00:29;;;;;;;10.40;3.22;;;;;;;;;;4911941;29;20111;-78
2022/09/30 15:02:56;;;;;;;8.45;2.83;;;;;;;;;;4920108;29;20024;-77
2022/09/30 15:05:22;;;;;;;18.33;3.50;;;;;;;;;;4915929;29;20032;-76
2022/09/30 15:07:48;;;;;;;15.90;3.72;;;;;;;;;;4919332;29;20043;-77
2022/09/30 15:10:20;;;;;;;6.20;3.20;;;;;;;;;;4905484;29;20032;-77